Time;durP1;ratioP1;P1;durP2;ratioP2;P2;SDS_P1;SDS_P2;PMS_P1;PMS_P2;Temp;Humidity;BMP_temperature;BMP_pressure;BME280_temperature;BME280_humidity;BME280_pressure;Samples;Min_cycle;Max_cycle;Signal;HPM_P1;HPM_P2
2023/07/29 00:02:11;;;;;;;3.17;0.98;;;;;;;;;;4992159;28;20040;-83
2023/07/29 00:04:37;;;;;;;2.45;0.90;;;;;;;;;;4989499;28;20030;-83
2023/07/29 00:07:03;;;;;;;2.13;0.98;;;;;;;;;;4994762;28;20157;-83
2023/07/29 00:09:29;;;;;;;3.95;1.20;;;;;;;;;;5007175;28;20041;-83
2023/07/29 00:11:55;;;;;;;2.45;0.85;;;;;;;;;;5001900;28;20608;-83
2023/07/29 00:14:21;;;;;;;1.45;0.70;;;;;;;;;;4985746;28;20913;-82
2023/07/29 00:16:47;;;;;;;5.22;0.98;;;;;;;;;;4985000;28;20040;-85
2023/07/29 00:19:13;;;;;;;4.13;1.48;;;;;;;;;;4987698;28;20030;-83
2023/07/29 00:21:40;;;;;;;2.80;1.08;;;;;;;;;;5008428;28;20057;-83
2023/07/29 00:24:06;;;;;;;1.50;0.60;;;;;;;;;;5009866;28;20026;-83
2023/07/29 00:26:32;;;;;;;5.03;1.08;;;;;;;;;;5013450;28;20040;-84
2023/07/29 00:28:59;;;;;;;2.22;1.13;;;;;;;;;;5005904;28;20029;-84
2023/07/29 00:31:24;;;;;;;2.53;1.00;;;;;;;;;;5006943;28;20037;-84
2023/07/29 00:33:52;;;;;;;2.17;0.85;;;;;;;;;;4993448;28;20034;-83
2023/07/29 00:36:19;;;;;;;1.48;0.77;;;;;;;;;;5010598;28;20018;-81
2023/07/29 00:38:45;;;;;;;2.08;1.02;;;;;;;;;;5009674;28;20037;-83
2023/07/29 00:41:13;;;;;;;1.88;0.88;;;15.90;99.90;;;;;;5007617;28;20030;-84
2023/07/29 00:43:39;;;;;;;2.58;1.23;;;;;;;;;;4994713;28;20025;-84
2023/07/29 00:46:05;;;;;;;1.83;1.00;;;;;;;;;;4992597;28;20027;-83
2023/07/29 00:48:31;;;;;;;5.93;1.10;;;;;;;;;;5007791;28;20026;-81
2023/07/29 00:50:57;;;;;;;2.97;1.05;;;;;;;;;;5015047;28;20029;-83
2023/07/29 00:53:23;;;;;;;1.23;0.73;;;;;;;;;;5008553;28;20061;-83
2023/07/29 00:55:49;;;;;;;2.00;1.02;;;;;;;;;;5013929;28;20032;-83
2023/07/29 00:58:15;;;;;;;1.85;0.93;;;;;;;;;;5010369;28;20065;-82
2023/07/29 01:04:03;;;;;;;4.03;1.38;;;;;;;;;;4994747;28;20025;-83
2023/07/29 01:06:29;;;;;;;1.45;0.98;;;;;;;;;;4999607;28;20030;-83
2023/07/29 01:09:13;;;;;;;2.15;1.02;;;16.40;99.90;;;;;;4997879;28;20034;-82
2023/07/29 01:12:01;;;;;;;2.13;0.88;;;16.20;99.90;;;;;;4985913;28;20040;-83
2023/07/29 01:14:36;;;;;;;1.60;0.85;;;16.20;99.90;;;;;;5001311;28;20057;-82
2023/07/29 01:17:04;;;;;;;2.15;0.93;;;;;;;;;;5000938;28;20041;-82
2023/07/29 01:20:05;;;;;;;2.45;1.35;;;16.40;99.90;;;;;;4999227;28;20029;-82
2023/07/29 01:22:33;;;;;;;1.85;0.90;;;15.80;99.90;;;;;;4985947;28;20053;-83
2023/07/29 01:24:59;;;;;;;2.22;1.23;;;;;;;;;;5000180;28;20021;-82
2023/07/29 01:27:26;;;;;;;2.38;1.17;;;;;;;;;;4995925;28;20054;-83
2023/07/29 01:29:52;;;;;;;3.05;1.02;;;;;;;;;;4999958;28;20034;-83
2023/07/29 01:32:40;;;;;;;2.55;1.30;;;16.30;99.90;;;;;;4979371;28;20053;-83
2023/07/29 01:35:31;;;;;;;4.72;1.73;;;13.90;99.90;;;;;;5005991;28;20532;-81
2023/07/29 01:38:05;;;;;;;2.22;0.82;;;16.70;99.90;;;;;;5000950;28;20045;-82
2023/07/29 01:40:31;;;;;;;3.15;1.60;;;;;;;;;;4998107;28;20030;-84
2023/07/29 01:42:57;;;;;;;3.22;1.48;;;;;;;;;;5000706;28;20037;-84
2023/07/29 01:45:25;;;;;;;2.60;1.40;;;16.80;99.90;;;;;;4984213;28;20030;-83
2023/07/29 01:47:51;;;;;;;2.78;1.45;;;;;;;;;;4982860;28;20434;-84
2023/07/29 01:50:17;;;;;;;3.72;1.63;;;;;;;;;;4998931;28;20025;-84
2023/07/29 01:52:43;;;;;;;3.78;1.33;;;;;;;;;;4996681;28;20542;-83
2023/07/29 01:55:09;;;;;;;2.38;1.33;;;;;;;;;;4995934;28;20207;-84
2023/07/29 01:57:35;;;;;;;5.15;0.88;;;;;;;;;;4981473;28;20042;-83
2023/07/29 02:00:01;;;;;;;3.85;1.48;;;;;;;;;;4999450;28;20045;-83
2023/07/29 02:02:27;;;;;;;2.78;1.30;;;;;;;;;;4996809;28;20030;-83
2023/07/29 02:04:55;;;;;;;2.78;1.05;;;;;;;;;;4984132;28;20092;-84
2023/07/29 02:10:45;;;;;;;1.98;0.98;;;;;;;;;;4998657;28;20048;-83
2023/07/29 02:13:11;;;;;;;1.63;1.02;;;;;;;;;;4996733;28;20032;-83
2023/07/29 02:15:37;;;;;;;3.42;1.48;;;;;;;;;;4999641;28;20030;-83
2023/07/29 02:18:03;;;;;;;3.63;1.63;;;;;;;;;;4984251;28;20433;-84
2023/07/29 02:20:29;;;;;;;7.10;1.70;;;;;;;;;;4984086;28;20044;-84
2023/07/29 02:22:55;;;;;;;3.55;1.73;;;;;;;;;;4982734;28;20467;-82
2023/07/29 02:25:21;;;;;;;2.55;1.25;;;;;;;;;;4985897;28;20041;-83
2023/07/29 02:27:47;;;;;;;3.53;1.88;;;;;;;;;;5002248;28;20045;-83
2023/07/29 02:30:13;;;;;;;3.58;1.45;;;;;;;;;;5003839;28;20051;-84
2023/07/29 02:32:39;;;;;;;2.67;1.17;;;;;;;;;;5008422;28;20064;-84
2023/07/29 02:35:05;;;;;;;3.65;1.73;;;16.20;99.90;;;;;;5002806;28;21323;-84
2023/07/29 02:37:31;;;;;;;3.35;1.75;;;;;;;;;;4983647;28;20057;-83
2023/07/29 02:39:57;;;;;;;4.57;1.85;;;;;;;;;;4999917;28;20034;-83
2023/07/29 02:42:23;;;;;;;6.25;2.22;;;;;;;;;;4981636;28;20113;-83
2023/07/29 02:44:49;;;;;;;2.78;1.27;;;;;;;;;;4991130;28;20541;-83
2023/07/29 02:47:15;;;;;;;4.65;1.85;;;;;;;;;;5001506;28;20036;-83
2023/07/29 02:49:41;;;;;;;7.60;2.22;;;;;;;;;;4989661;28;20486;-83
2023/07/29 02:52:07;;;;;;;10.60;2.13;;;;;;;;;;4983374;28;20026;-83
2023/07/29 02:54:33;;;;;;;3.58;1.90;;;;;;;;;;4996699;28;20026;-84
2023/07/29 02:56:58;;;;;;;5.15;1.48;;;;;;;;;;4993920;28;20029;-83
2023/07/29 02:59:24;;;;;;;3.40;1.38;;;;;;;;;;4996398;28;20105;-83
2023/07/29 03:01:50;;;;;;;6.70;1.98;;;16.60;99.90;;;;;;4998845;28;20611;-85
2023/07/29 03:04:16;;;;;;;2.28;1.05;;;;;;;;;;4999126;28;20486;-83
2023/07/29 03:06:42;;;;;;;2.05;1.23;;;;;;;;;;4994835;28;20073;-84
2023/07/29 03:09:08;;;;;;;3.95;1.88;;;;;;;;;;5002155;28;20612;-83
2023/07/29 03:11:34;;;;;;;3.42;1.13;;;;;;;;;;5002417;28;20149;-83
2023/07/29 03:14:00;;;;;;;2.58;1.10;;;;;;;;;;5003309;28;20026;-84
2023/07/29 03:16:26;;;;;;;3.58;1.55;;;;;;;;;;4985385;28;20127;-84
2023/07/29 03:18:52;;;;;;;2.22;1.17;;;;;;;;;;4982704;28;20030;-85
2023/07/29 03:21:18;;;;;;;1.67;1.00;;;;;;;;;;4990940;28;20030;-83
2023/07/29 03:23:44;;;;;;;2.03;1.02;;;;;;;;;;4990173;28;20124;-83
2023/07/29 03:26:10;;;;;;;2.40;1.10;;;;;;;;;;4987134;28;20027;-83
2023/07/29 03:28:39;;;;;;;9.23;1.70;;;16.70;99.90;;;;;;5002047;28;20036;-84
2023/07/29 03:31:05;;;;;;;3.63;1.95;;;;;;;;;;5000782;28;20060;-83
2023/07/29 03:33:31;;;;;;;4.47;2.55;;;;;;;;;;4989881;28;20558;-84
2023/07/29 03:35:56;;;;;;;2.45;1.15;;;;;;;;;;4998200;28;20037;-84
2023/07/29 03:38:22;;;;;;;3.70;1.38;;;;;;;;;;4989045;28;20096;-84
2023/07/29 03:40:49;;;;;;;2.15;1.13;;;;;;;;;;5008208;28;20022;-84
2023/07/29 03:43:15;;;;;;;5.57;1.48;;;;;;;;;;5010252;28;20029;-83
2023/07/29 03:45:41;;;;;;;2.55;1.02;;;;;;;;;;5005336;28;20030;-84
2023/07/29 03:48:07;;;;;;;2.20;1.15;;;;;;;;;;4989952;28;20118;-84
2023/07/29 03:50:35;;;;;;;1.80;0.85;;;;;;;;;;4990080;28;20046;-84
2023/07/29 03:53:01;;;;;;;3.65;1.25;;;;;;;;;;4993682;28;21180;-84
2023/07/29 03:55:27;;;;;;;1.73;1.05;;;;;;;;;;4988857;28;20064;-85
2023/07/29 03:57:53;;;;;;;2.97;0.93;;;;;;;;;;4992955;28;20058;-83
2023/07/29 04:00:19;;;;;;;3.03;1.27;;;;;;;;;;4999185;28;20065;-83
2023/07/29 04:02:45;;;;;;;5.05;1.23;;;;;;;;;;4994700;28;20037;-84
2023/07/29 04:05:11;;;;;;;2.00;1.23;;;;;;;;;;4999878;28;20025;-83
2023/07/29 04:07:37;;;;;;;2.15;1.02;;;;;;;;;;5007797;28;20467;-84
2023/07/29 04:10:04;;;;;;;1.83;1.17;;;;;;;;;;4984916;28;20022;-84
2023/07/29 04:12:30;;;;;;;2.20;1.17;;;;;;;;;;4970842;28;20025;-82
2023/07/29 04:14:56;;;;;;;3.47;1.20;;;;;;;;;;5003062;28;20060;-84
2023/07/29 04:17:22;;;;;;;1.98;1.20;;;;;;;;;;4977277;28;20157;-83
2023/07/29 04:19:48;;;;;;;4.22;1.35;;;;;;;;;;5001170;28;20080;-84
2023/07/29 04:22:15;;;;;;;4.63;1.13;;;16.40;99.90;;;;;;5011508;28;20061;-83
2023/07/29 04:24:41;;;;;;;3.28;1.38;;;;;;;;;;4978529;28;20371;-84
2023/07/29 04:27:07;;;;;;;2.47;1.42;;;;;;;;;;5004666;28;20048;-83
2023/07/29 04:29:35;;;;;;;3.25;1.40;;;;;;;;;;5007998;28;20089;-84
2023/07/29 04:32:01;;;;;;;2.22;1.02;;;;;;;;;;4997838;28;20026;-84
2023/07/29 04:34:27;;;;;;;2.85;1.27;;;;;;;;;;4992964;28;20056;-84
2023/07/29 04:36:53;;;;;;;1.75;0.95;;;;;;;;;;5004161;28;20442;-83
2023/07/29 04:39:19;;;;;;;2.47;1.20;;;;;;;;;;4994086;28;20026;-83
2023/07/29 04:41:45;;;;;;;1.23;0.80;;;;;;;;;;4997558;28;20037;-83
2023/07/29 04:44:11;;;;;;;1.65;0.70;;;;;;;;;;5014999;28;20115;-83
2023/07/29 04:46:38;;;;;;;2.63;0.77;;;;;;;;;;4997053;28;20040;-83
2023/07/29 04:49:04;;;;;;;1.58;0.60;;;;;;;;;;4991015;28;20029;-84
2023/07/29 04:51:31;;;;;;;1.75;0.77;;;;;;;;;;5004597;28;20030;-85
2023/07/29 04:53:57;;;;;;;2.22;0.80;;;;;;;;;;5003334;28;20561;-84
2023/07/29 04:56:23;;;;;;;2.28;0.93;;;;;;;;;;5017640;28;20034;-83
2023/07/29 04:58:49;;;;;;;1.77;0.85;;;;;;;;;;4998393;28;20049;-84
2023/07/29 05:01:15;;;;;;;1.75;1.00;;;;;;;;;;4988357;28;20076;-83
2023/07/29 05:03:41;;;;;;;1.50;0.70;;;;;;;;;;4988252;28;20030;-83
2023/07/29 05:06:07;;;;;;;1.30;0.70;;;;;;;;;;4988574;28;20033;-82
2023/07/29 05:08:33;;;;;;;1.42;0.70;;;;;;;;;;4991642;28;20124;-85
2023/07/29 05:10:59;;;;;;;1.20;0.57;;;;;;;;;;5013015;28;20034;-84
2023/07/29 05:13:25;;;;;;;2.15;0.95;;;;;;;;;;4994384;28;20022;-84
2023/07/29 05:15:51;;;;;;;1.30;0.70;;;;;;;;;;4994511;28;20053;-81
2023/07/29 05:18:17;;;;;;;2.03;0.70;;;17.30;99.90;;;;;;4993424;28;20026;-83
2023/07/29 05:20:43;;;;;;;2.25;0.88;;;;;;;;;;5014172;28;20033;-82
2023/07/29 05:23:10;;;;;;;1.40;0.82;;;;;;;;;;5017525;28;20398;-83
2023/07/29 05:25:36;;;;;;;1.65;0.65;;;;;;;;;;5013631;28;20025;-82
2023/07/29 05:28:02;;;;;;;1.33;0.70;;;;;;;;;;4995693;28;20034;-83
2023/07/29 05:30:30;;;;;;;3.28;0.55;;;;;;;;;;4999721;28;20068;-85
2023/07/29 05:32:57;;;;;;;7.13;0.82;;;;;;;;;;4998167;28;20018;-84
2023/07/29 05:35:23;;;;;;;2.20;0.88;;;;;;;;;;4995314;28;20030;-83
2023/07/29 05:37:49;;;;;;;1.13;0.40;;;;;;;;;;5012907;28;20026;-84
2023/07/29 05:43:45;;;;;;;4.07;0.70;;;;;;;;;;4991135;28;20788;-84
2023/07/29 05:46:11;;;;;;;1.80;0.60;;;;;;;;;;4967097;28;20038;-82
2023/07/29 05:48:37;;;;;;;1.92;0.77;;;;;;;;;;4985692;28;20117;-84
2023/07/29 05:51:05;;;;;;;4.30;0.55;;;;;;;;;;4983116;28;20113;-85
2023/07/29 05:53:31;;;;;;;1.48;0.50;;;;;;;;;;4974479;28;20037;-84
2023/07/29 05:55:57;;;;;;;2.05;0.60;;;;;;;;;;4990023;28;20018;-83
2023/07/29 05:58:23;;;;;;;3.90;0.70;;;;;;;;;;4989561;28;20053;-84
2023/07/29 06:00:49;;;;;;;0.80;0.60;;;;;;;;;;4971785;28;20123;-83
2023/07/29 06:03:15;;;;;;;3.42;0.88;;;;;;;;;;4971511;28;20041;-85
2023/07/29 06:05:40;;;;;;;0.70;0.40;;;;;;;;;;4976963;28;20038;-83
2023/07/29 06:08:08;;;;;;;1.23;0.60;;;;;;;;;;4988967;28;22144;-84
2023/07/29 06:10:34;;;;;;;1.27;0.70;;;;;;;;;;4994446;28;20018;-83
2023/07/29 06:12:59;;;;;;;2.20;0.90;;;17.40;99.90;;;;;;4993807;28;20022;-83
2023/07/29 06:15:25;;;;;;;1.02;0.40;;;;;;;;;;4985106;28;20157;-84
2023/07/29 06:17:52;;;;;;;1.52;0.50;;;;;;;;;;4984136;28;20034;-84
2023/07/29 06:20:18;;;;;;;4.82;0.80;;;;;;;;;;4990458;28;20026;-84
2023/07/29 06:22:44;;;;;;;1.92;1.08;;;;;;;;;;4969134;28;20542;-84
2023/07/29 06:25:10;;;;;;;1.05;0.50;;;;;;;;;;4988918;28;20136;-82
2023/07/29 06:27:36;;;;;;;1.02;0.52;;;;;;;;;;4992266;28;20045;-83
2023/07/29 06:30:02;;;;;;;1.13;0.40;;;;;;;;;;4988330;28;20025;-83
2023/07/29 06:32:28;;;;;;;1.55;0.43;;;;;;;;;;4998172;28;20018;-83
2023/07/29 06:34:54;;;;;;;0.75;0.35;;;17.80;99.90;;;;;;4989064;28;20495;-83
2023/07/29 06:37:20;;;;;;;6.18;0.80;;;;;;;;;;4986461;28;20037;-82
2023/07/29 06:39:46;;;;;;;1.25;0.60;;;;;;;;;;4970283;28;20041;-85
2023/07/29 06:42:12;;;;;;;3.75;1.50;;;;;;;;;;4985715;28;20490;-81
2023/07/29 06:44:40;;;;;;;1.58;0.88;;;17.90;99.90;;;;;;4982436;28;20037;-84
2023/07/29 06:47:06;;;;;;;2.78;0.70;;;;;;;;;;4970831;28;20105;-82
2023/07/29 06:49:32;;;;;;;2.13;0.63;;;;;;;;;;4988366;28;20030;-84
2023/07/29 06:51:58;;;;;;;3.13;0.52;;;;;;;;;;4976440;28;20034;-82
2023/07/29 06:54:26;;;;;;;1.88;1.13;;;17.90;99.90;;;;;;4980674;28;20041;-82
2023/07/29 06:56:52;;;;;;;1.88;0.70;;;;;;;;;;4968154;28;20029;-82
2023/07/29 06:59:18;;;;;;;1.65;0.60;;;;;;;;;;4985094;28;20044;-85
2023/07/29 07:01:44;;;;;;;2.33;0.57;;;;;;;;;;4975952;28;20045;-85
2023/07/29 07:04:09;;;;;;;3.20;0.80;;;17.80;99.90;;;;;;4996275;28;20029;-83
2023/07/29 07:06:35;;;;;;;1.77;0.70;;;18.10;99.90;;;;;;4992229;28;20118;-84
2023/07/29 07:09:01;;;;;;;2.00;0.82;;;;;;;;;;4984903;28;20089;-83
2023/07/29 07:11:28;;;;;;;5.78;0.60;;;;;;;;;;4997024;28;20022;-83
2023/07/29 07:13:54;;;;;;;3.15;0.77;;;;;;;;;;4996896;28;20030;-84
2023/07/29 07:16:20;;;;;;;3.08;1.00;;;18.40;99.90;;;;;;4981226;28;20510;-85
2023/07/29 07:18:46;;;;;;;1.48;0.45;;;;;;;;;;4979634;28;20137;-84
2023/07/29 07:21:11;;;;;;;4.88;0.77;;;18.60;99.90;;;;;;4985693;28;20144;-85
2023/07/29 07:23:39;;;;;;;1.70;0.75;;;18.60;99.90;;;;;;4980221;28;20029;-85
2023/07/29 07:26:04;;;;;;;5.45;1.73;;;18.80;99.90;;;;;;4975589;28;20034;-87
2023/07/29 07:28:30;;;;;;;2.05;0.60;;;;;;;;;;4975383;28;20075;-83
2023/07/29 07:30:56;;;;;;;2.20;0.50;;;;;;;;;;5002240;28;20148;-84
2023/07/29 07:33:22;;;;;;;1.15;0.50;;;;;;;;;;4988500;28;20029;-84
2023/07/29 07:35:52;;;;;;;0.60;0.38;;;19.00;99.90;;;;;;4972167;28;20033;-86
2023/07/29 07:38:18;;;;;;;1.85;0.65;;;;;;;;;;4984107;28;20474;-83
2023/07/29 07:40:53;;;;;;;1.13;0.20;;;;;;;;;;4997654;28;20161;-84
2023/07/29 07:43:19;;;;;;;1.00;0.60;;;;;;;;;;4973683;28;20034;-84
2023/07/29 07:45:46;;;;;;;5.07;0.50;;;;;;;;;;4993162;28;20908;-84
2023/07/29 07:48:13;;;;;;;0.98;0.47;;;;;;;;;;4977516;28;20716;-84
2023/07/29 07:50:39;;;;;;;1.20;0.55;;;;;;;;;;5007790;28;20034;-83
2023/07/29 07:53:05;;;;;;;1.73;0.43;;;;;;;;;;4982143;28;20112;-83
2023/07/29 07:55:30;;;;;;;4.28;0.50;;;19.80;99.90;;;;;;4998226;28;20468;-83
2023/07/29 07:57:56;;;;;;;0.85;0.20;;;;;;;;;;4991032;28;20521;-84
2023/07/29 08:00:24;;;;;;;3.30;0.57;;;;;;;;;;4996863;28;20030;-83
2023/07/29 08:02:49;;;;;;;3.75;0.45;;;20.10;99.90;;;;;;4985077;28;20107;-81
2023/07/29 08:05:15;;;;;;;1.60;0.60;;;20.20;99.90;;;;;;4994456;28;20526;-83
2023/07/29 08:07:41;;;;;;;1.45;0.60;;;;;;;;;;4977303;28;20076;-83
2023/07/29 08:10:07;;;;;;;1.17;0.47;;;;;;;;;;4989616;28;20474;-84
2023/07/29 08:12:33;;;;;;;1.80;0.60;;;;;;;;;;5001042;28;20097;-83
2023/07/29 08:14:59;;;;;;;1.65;0.47;;;;;;;;;;4996534;28;20144;-83
2023/07/29 08:17:25;;;;;;;0.70;0.43;;;;;;;;;;5000808;28;20068;-85
2023/07/29 08:19:52;;;;;;;1.75;0.55;;;;;;;;;;4984782;28;20030;-84
2023/07/29 08:22:18;;;;;;;1.13;0.28;;;;;;;;;;4995756;28;20395;-84
2023/07/29 08:24:44;;;;;;;0.57;0.30;;;;;;;;;;4994531;28;20113;-84
2023/07/29 08:27:10;;;;;;;0.68;0.40;;;;;;;;;;4991703;28;20038;-83
2023/07/29 08:29:36;;;;;;;0.85;0.30;;;;;;;;;;4977057;28;20038;-83
2023/07/29 08:32:02;;;;;;;0.75;0.52;;;21.40;99.90;;;;;;4990488;28;20037;-85
2023/07/29 08:34:28;;;;;;;1.30;0.70;;;;;;;;;;4991392;28;20401;-85
2023/07/29 08:36:54;;;;;;;0.75;0.40;;;;;;;;;;4995526;28;20084;-85
2023/07/29 08:39:20;;;;;;;1.35;0.45;;;21.60;99.90;;;;;;4984733;28;20042;-85
2023/07/29 08:41:46;;;;;;;1.23;0.52;;;;;;;;;;5001178;28;20038;-84
2023/07/29 08:44:12;;;;;;;1.70;0.60;;;;;;;;;;5002969;28;20108;-85
2023/07/29 08:46:39;;;;;;;1.25;0.30;;;23.10;99.90;;;;;;5007201;28;20097;-86
2023/07/29 08:49:05;;;;;;;1.17;0.60;;;;;;;;;;4993207;28;22180;-85
2023/07/29 08:51:32;;;;;;;2.38;0.50;;;23.40;99.90;;;;;;5002196;28;20045;-85
2023/07/29 08:53:58;;;;;;;4.72;0.40;;;22.80;99.90;;;;;;4990634;28;20042;-85
2023/07/29 08:56:26;;;;;;;1.45;0.52;;;;;;;;;;5002131;28;20080;-86
2023/07/29 08:58:52;;;;;;;0.88;0.30;;;22.40;99.90;;;;;;5003104;28;20567;-85
2023/07/29 09:01:18;;;;;;;1.17;0.60;;;;;;;;;;5002210;28;20700;-85
2023/07/29 09:03:44;;;;;;;0.50;0.20;;;22.30;99.90;;;;;;5001252;28;20057;-86
2023/07/29 09:06:10;;;;;;;1.85;0.73;;;;;;;;;;4997092;28;20045;-86
2023/07/29 09:08:36;;;;;;;1.67;0.45;;;;;;;;;;5002958;28;20152;-86
2023/07/29 09:11:02;;;;;;;0.88;0.40;;;;;;;;;;4978820;28;20064;-85
2023/07/29 09:13:28;;;;;;;1.67;0.63;;;;;;;;;;5009114;28;20033;-82
2023/07/29 09:15:56;;;;;;;2.60;0.60;;;22.20;99.90;;;;;;5005029;28;20025;-85
2023/07/29 09:18:23;;;;;;;2.25;0.57;;;;;;;;;;4997681;28;20040;-85
2023/07/29 09:20:49;;;;;;;0.40;0.28;;;22.50;99.90;;;;;;5015303;28;20090;-85
2023/07/29 09:23:16;;;;;;;0.70;0.40;;;;;;;;;;5015885;28;20033;-85
2023/07/29 09:25:42;;;;;;;1.15;0.40;;;;;;;;;;5001395;28;20038;-85
2023/07/29 09:28:13;;;;;;;6.68;0.40;;;22.70;99.90;;;;;;4996222;28;20097;-85
2023/07/29 09:30:40;;;;;;;1.17;0.40;;;;;;;;;;5011556;28;20026;-85
2023/07/29 09:33:06;;;;;;;3.63;0.47;;;;;;;;;;5007508;28;20034;-86
2023/07/29 09:35:34;;;;;;;0.90;0.20;;;23.70;99.90;;;;;;5001610;28;20168;-85
2023/07/29 09:38:01;;;;;;;0.35;0.25;;;;;;;;;;5008015;28;20018;-85
2023/07/29 09:40:27;;;;;;;1.15;0.45;;;;;;;;;;5012751;28;20046;-84
2023/07/29 09:42:54;;;;;;;1.77;0.60;;;22.70;99.90;;;;;;5000326;28;20054;-84
2023/07/29 09:45:21;;;;;;;0.63;0.43;;;;;;;;;;4980445;28;20032;-84
2023/07/29 09:51:13;;;;;;;1.65;1.10;;;;;;;;;;4992030;28;20045;-83
2023/07/29 09:53:43;;;;;;;0.57;0.30;;;22.90;99.90;;;;;;4994077;28;20060;-83
2023/07/29 09:56:10;;;;;;;0.63;0.30;;;23.50;99.90;;;;;;4990802;28;20033;-83
2023/07/29 09:58:38;;;;;;;0.65;0.28;;;;;;;;;;4997180;28;20030;-83
2023/07/29 10:01:04;;;;;;;0.85;0.30;;;;;;;;;;4992012;28;20541;-83
2023/07/29 10:03:31;;;;;;;0.68;0.30;;;22.80;99.90;;;;;;4989702;28;20030;-86
2023/07/29 10:06:01;;;;;;;1.67;0.43;;;22.90;99.90;;;;;;4990907;28;20045;-84
2023/07/29 10:08:27;;;;;;;3.22;0.95;;;;;;;;;;4983201;28;20030;-85
2023/07/29 10:10:53;;;;;;;1.00;0.85;;;;;;;;;;4997049;28;20431;-86
2023/07/29 10:13:19;;;;;;;1.33;0.95;;;;;;;;;;4978543;28;20029;-84
2023/07/29 10:15:46;;;;;;;2.53;0.57;;;;;;;;;;4975371;28;20026;-85
2023/07/29 10:18:12;;;;;;;0.57;0.40;;;;;;;;;;4982593;28;20536;-84
2023/07/29 10:20:40;;;;;;;1.35;0.40;;;23.40;99.90;;;;;;4981314;28;20021;-84
2023/07/29 10:23:08;;;;;;;2.38;0.68;;;23.60;99.90;;;;;;4986910;28;20624;-82
2023/07/29 10:25:41;;;;;;;1.58;0.50;;;;;;;;;;4988579;28;20033;-83
2023/07/29 10:28:08;;;;;;;1.75;0.50;;;;;;;;;;4977287;28;20033;-83
2023/07/29 10:30:34;;;;;;;1.30;0.60;;;;;;;;;;4991789;28;20172;-85
2023/07/29 10:33:04;;;;;;;1.25;0.50;;;24.60;99.90;;;;;;5001300;28;20113;-85
2023/07/29 10:35:30;;;;;;;1.02;0.43;;;;;;;;;;4981330;28;20600;-85
2023/07/29 10:37:56;;;;;;;4.28;0.65;;;;;;;;;;4999660;28;20038;-83
2023/07/29 10:40:22;;;;;;;0.85;0.45;;;;;;;;;;4994924;28;20026;-83
2023/07/29 10:43:09;;;;;;;1.25;0.50;;;24.50;99.90;;;;;;4992970;28;20928;-82
2023/07/29 10:45:39;;;;;;;0.60;0.30;;;24.60;99.90;;;;;;4981276;28;20042;-82
2023/07/29 10:48:10;;;;;;;1.58;0.60;;;25.00;99.90;;;;;;4986021;28;20038;-83
2023/07/29 10:50:36;;;;;;;3.63;0.70;;;;;;;;;;4994186;28;20030;-80
2023/07/29 10:53:02;;;;;;;1.90;0.80;;;;;;;;;;5004619;28;20026;-83
2023/07/29 10:55:31;;;;;;;1.17;0.47;;;25.30;99.90;;;;;;5004367;28;20037;-82
2023/07/29 10:58:13;;;;;;;2.72;0.40;;;25.30;99.90;;;;;;4993325;28;20026;-84
2023/07/29 11:00:43;;;;;;;1.83;0.50;;;26.40;99.90;;;;;;4979273;28;20030;-81
2023/07/29 11:03:09;;;;;;;1.55;0.47;;;;;;;;;;4995157;28;20021;-82
2023/07/29 11:05:52;;;;;;;1.50;0.45;;;25.60;99.90;;;;;;4977949;28;20032;-82
2023/07/29 11:08:19;;;;;;;1.35;0.60;;;;;;;;;;4996968;28;20044;-80
2023/07/29 11:11:07;;;;;;;0.80;0.43;;;26.00;99.90;;;;;;4989515;28;20018;-82
2023/07/29 11:13:35;;;;;;;1.30;0.50;;;25.90;99.90;;;;;;4983462;28;20052;-81
2023/07/29 11:16:01;;;;;;;0.90;0.38;;;;;;;;;;4976172;28;20050;-82
2023/07/29 11:18:29;;;;;;;0.55;0.30;;;25.50;99.90;;;;;;5011442;28;20041;-83
2023/07/29 11:20:56;;;;;;;1.48;0.30;;;25.50;99.90;;;;;;4993644;28;20397;-82
2023/07/29 11:23:28;;;;;;;2.05;0.55;;;25.40;99.90;;;;;;4993554;28;20030;-82
2023/07/29 11:25:54;;;;;;;0.95;0.38;;;25.10;99.90;;;;;;5001765;28;20041;-81
2023/07/29 11:28:21;;;;;;;1.30;0.50;;;25.30;99.90;;;;;;4992801;28;20104;-82
2023/07/29 11:30:47;;;;;;;1.48;0.30;;;25.70;99.90;;;;;;5009324;28;20026;-80
2023/07/29 11:33:13;;;;;;;1.02;0.52;;;;;;;;;;5007884;28;22791;-81
2023/07/29 11:35:39;;;;;;;0.75;0.50;;;;;;;;;;5008238;28;20550;-83
2023/07/29 11:38:05;;;;;;;0.95;0.40;;;;;;;;;;4991698;28;21354;-81
2023/07/29 11:40:31;;;;;;;1.30;0.30;;;;;;;;;;5007568;28;20038;-83
2023/07/29 11:42:57;;;;;;;1.30;0.60;;;;;;;;;;4988490;28;20057;-81
2023/07/29 11:45:23;;;;;;;0.90;0.50;;;;;;;;;;4994588;28;20038;-83
2023/07/29 11:47:49;;;;;;;2.40;0.40;;;;;;;;;;5011331;28;20014;-84
2023/07/29 11:50:15;;;;;;;1.63;0.50;;;;;;;;;;5008742;28;20495;-81
2023/07/29 11:52:43;;;;;;;1.13;0.40;;;25.60;99.90;;;;;;4992901;28;20064;-82
2023/07/29 11:55:09;;;;;;;1.95;0.80;;;;;;;;;;5009274;28;20025;-84
2023/07/29 11:57:39;;;;;;;2.40;0.70;;;24.80;99.90;;;;;;4992001;28;20164;-83
2023/07/29 12:00:09;;;;;;;2.15;0.47;;;25.00;99.90;;;;;;4988888;28;20037;-82
2023/07/29 12:02:39;;;;;;;0.52;0.30;;;25.40;99.90;;;;;;5009015;28;20030;-82
2023/07/29 12:05:05;;;;;;;0.70;0.40;;;25.30;99.90;;;;;;4986344;28;20026;-83
2023/07/29 12:07:33;;;;;;;0.98;0.40;;;25.30;99.90;;;;;;4983305;28;20029;-82
2023/07/29 12:09:59;;;;;;;1.35;0.50;;;;;;;;;;4983872;28;20391;-83
2023/07/29 12:12:25;;;;;;;4.13;0.45;;;;;;;;;;5002911;28;20092;-82
2023/07/29 12:14:51;;;;;;;1.08;0.35;;;25.20;99.90;;;;;;5003358;28;20026;-82
2023/07/29 12:17:17;;;;;;;1.25;0.50;;;;;;;;;;5006307;28;20034;-82
2023/07/29 12:19:43;;;;;;;2.80;0.40;;;25.20;99.90;;;;;;5006171;28;20042;-82
2023/07/29 12:22:11;;;;;;;1.58;0.75;;;24.90;99.90;;;;;;4989282;28;20061;-82
2023/07/29 12:24:41;;;;;;;1.33;0.40;;;24.70;99.90;;;;;;5001518;28;20108;-81
2023/07/29 12:27:12;;;;;;;4.10;0.50;;;24.90;99.90;;;;;;4988151;28;20046;-83
2023/07/29 12:29:46;;;;;;;0.95;0.40;;;24.70;99.90;;;;;;4997567;28;20026;-82
2023/07/29 12:32:12;;;;;;;0.70;0.38;;;;;;;;;;4994035;28;20494;-82
2023/07/29 12:34:39;;;;;;;2.42;0.43;;;25.10;99.90;;;;;;5004470;28;20033;-82
2023/07/29 12:37:06;;;;;;;0.95;0.50;;;24.90;99.90;;;;;;5002155;28;20022;-82
2023/07/29 12:39:33;;;;;;;1.25;0.40;;;25.10;99.90;;;;;;4997644;28;21969;-82
2023/07/29 12:42:01;;;;;;;0.95;0.40;;;25.50;99.90;;;;;;4999434;28;20091;-84
2023/07/29 12:44:36;;;;;;;0.75;0.30;;;25.10;99.90;;;;;;4978089;28;20521;-84
2023/07/29 12:47:03;;;;;;;0.70;0.38;;;25.20;99.90;;;;;;4972495;28;20514;-83
2023/07/29 12:49:30;;;;;;;4.47;0.50;;;;;;;;;;5007156;28;20029;-83
2023/07/29 12:51:59;;;;;;;0.77;0.40;;;25.50;99.90;;;;;;4993182;28;20264;-82
2023/07/29 12:54:25;;;;;;;1.33;0.38;;;25.60;99.90;;;;;;5005709;28;20025;-82
2023/07/29 12:57:26;;;;;;;2.92;0.40;;;25.30;99.90;;;;;;4991619;28;20044;-83
2023/07/29 12:59:52;;;;;;;1.45;0.60;;;25.70;99.90;;;;;;4984718;28;20090;-82
2023/07/29 13:02:18;;;;;;;0.68;0.30;;;;;;;;;;4978542;28;20176;-82
2023/07/29 13:04:44;;;;;;;1.38;0.50;;;;;;;;;;4992026;28;20099;-81
2023/07/29 13:07:10;;;;;;;1.98;0.30;;;25.20;99.90;;;;;;4996693;28;20030;-82
2023/07/29 13:09:35;;;;;;;0.85;0.40;;;25.80;99.90;;;;;;4981139;28;20073;-80
2023/07/29 13:12:01;;;;;;;0.93;0.32;;;;;;;;;;4987439;28;20397;-83
2023/07/29 13:14:27;;;;;;;0.82;0.30;;;24.90;99.90;;;;;;4988216;28;20033;-82
2023/07/29 13:16:53;;;;;;;2.50;0.52;;;;;;;;;;4993743;28;20038;-83
2023/07/29 13:19:19;;;;;;;1.77;0.40;;;;;;;;;;4978320;28;20036;-82
2023/07/29 13:21:44;;;;;;;2.83;0.40;;;24.70;99.90;;;;;;4988832;28;20289;-81
2023/07/29 13:24:10;;;;;;;0.40;0.30;;;;;;;;;;4991168;28;20033;-79
2023/07/29 13:26:36;;;;;;;2.00;0.45;;;;;;;;;;4991750;28;20046;-81
2023/07/29 13:29:04;;;;;;;1.60;0.43;;;25.90;99.90;;;;;;4992884;28;20030;-81
2023/07/29 13:31:30;;;;;;;1.00;0.40;;;25.80;99.90;;;;;;4984657;28;20067;-83
2023/07/29 13:33:56;;;;;;;0.75;0.30;;;25.60;99.90;;;;;;4973273;28;20031;-81
2023/07/29 13:36:21;;;;;;;1.38;0.47;;;25.60;99.90;;;;;;4960131;28;20033;-79
2023/07/29 13:38:47;;;;;;;2.40;0.85;;;25.70;99.90;;;;;;4987094;28;20065;-82
2023/07/29 13:41:12;;;;;;;1.08;0.47;;;26.00;99.90;;;;;;4988588;28;20030;-80
2023/07/29 13:43:38;;;;;;;1.00;0.30;;;;;;;;;;4980869;28;20504;-81
2023/07/29 13:46:04;;;;;;;3.05;0.52;;;25.80;99.90;;;;;;4992674;28;20093;-80
2023/07/29 13:48:32;;;;;;;1.63;0.60;;;;;;;;;;4993870;28;20034;-82
2023/07/29 13:50:58;;;;;;;0.73;0.30;;;25.60;99.90;;;;;;4989170;28;20088;-83
2023/07/29 13:53:24;;;;;;;0.82;0.40;;;25.60;99.90;;;;;;4982007;28;20065;-82
2023/07/29 13:55:49;;;;;;;1.50;0.43;;;25.40;99.90;;;;;;4989655;28;20038;-83
2023/07/29 13:58:15;;;;;;;0.77;0.45;;;25.40;99.90;;;;;;4977952;28;20290;-82
2023/07/29 14:00:41;;;;;;;0.70;0.25;;;;;;;;;;4979308;28;20041;-83
2023/07/29 14:03:07;;;;;;;5.30;0.50;;;;;;;;;;4995984;28;20402;-83
2023/07/29 14:05:34;;;;;;;0.93;0.40;;;25.10;99.90;;;;;;4997047;28;20022;-82
2023/07/29 14:08:00;;;;;;;2.72;0.60;;;25.20;99.90;;;;;;4994258;28;20026;-82
2023/07/29 14:10:26;;;;;;;0.90;0.40;;;25.20;99.90;;;;;;4993413;28;20030;-82
2023/07/29 14:12:52;;;;;;;1.95;0.55;;;25.60;99.90;;;;;;4994463;28;20040;-83
2023/07/29 14:15:18;;;;;;;1.25;0.50;;;25.60;99.90;;;;;;5003317;28;21132;-82
2023/07/29 14:17:45;;;;;;;0.55;0.30;;;25.60;99.90;;;;;;4995441;28;20022;-84